Melissa — E5U2571 — position and weather

sailwx.info

Track history (hours):
 
Tides and Currents Weather Stations Pressure Air Temp Water Temp Dewpoint Dewpoint Depression Visibility Wind Speed Wind Dir Waves Ship Positions

Melissa

Last reported at 2017-Sep-13 06:14 UTC. Time now 2017-Sep-20 02:05 UTC.
Position N 33°49' E 015°28'.

Length 83 m; draft 4.3 m.

Type: Cargo ship. MMSI: 518624000.

Date/timePositionNaut miles runAvg speedWind from/ knotsBaromVisibWave heightAir tempDewpointWater temp
2017-Sep-13 06:14N 33°49' E 015°28'2 8.3
2017-Sep-13 05:58N 33°49' E 015°26'4 8.3
2017-Sep-13 05:30N 33°49' E 015°21'4 8.4
2017-Sep-13 05:00N 33°49' E 015°16'4 8.6
2017-Sep-13 04:29N 33°50' E 015°11'4 8.8
2017-Sep-13 04:00N 33°50' E 015°06'5 9.0
2017-Sep-13 03:30N 33°50' E 015°00'5 9.0
2017-Sep-13 02:57N 33°51' E 014°54'4 9.0
2017-Sep-13 02:30N 33°51' E 014°49'15 8.8
2017-Sep-13 00:47N 33°52' E 014°31'13 8.5
2017-Sep-12 23:12N 33°53' E 014°15'2 8.5
2017-Sep-12 23:00N 33°53' E 014°13'4 8.5
2017-Sep-12 22:30N 33°54' E 014°08'14 8.3
2017-Sep-12 20:48N 33°55' E 013°51'2 8.2
2017-Sep-12 20:30N 33°55' E 013°48'4 8.2
2017-Sep-12 20:00N 33°55' E 013°43'4 8.3
2017-Sep-12 19:30N 33°55' E 013°38'4 8.1
2017-Sep-12 19:00N 33°56' E 013°33'4 8.0
2017-Sep-12 18:30N 33°56' E 013°29'4 7.9
2017-Sep-12 18:00N 33°56' E 013°24'5 7.7
2017-Sep-12 17:23N 33°57' E 013°18'3 7.4
2017-Sep-12 17:00N 33°57' E 013°15'  
2017-Sep-07 21:19N 35°38' E 014°11'3 8.1
2017-Sep-07 20:59N 35°39' E 014°14'4 8.1
2017-Sep-07 20:30N 35°41' E 014°18'4 8.1
2017-Sep-07 20:00N 35°43' E 014°22'14 7.8
2017-Sep-07 18:12N 35°51' E 014°37'2 8.5
2017-Sep-07 18:00N 35°53' E 014°37'4 7.6
2017-Sep-07 17:30N 35°55' E 014°33'2 0.8
2017-Sep-07 14:25N 35°53' E 014°31'0 0.0
2017-Sep-06 18:34N 35°53' E 014°31'0 0.0
2017-Sep-06 18:28N 35°53' E 014°31'1 0.1
2017-Sep-06 02:50N 35°54' E 014°32'2 7.4
2017-Sep-06 02:30N 35°55' E 014°34'4 7.5
2017-Sep-06 02:00N 35°54' E 014°39'4 7.3
2017-Sep-06 01:30N 35°52' E 014°43'1 1.0
2017-Sep-06 00:13N 35°51' E 014°44'0 0.0
2017-Sep-05 23:58N 35°51' E 014°44'0 0.0
2017-Sep-05 23:13N 35°51' E 014°44'0 0.0
2017-Sep-05 22:43N 35°51' E 014°44'0 0.0
2017-Sep-05 22:22N 35°51' E 014°44'0 0.0
2017-Sep-05 21:55N 35°51' E 014°44'0 0.0
2017-Sep-05 21:25N 35°51' E 014°44'0 0.0
2017-Sep-05 19:55N 35°51' E 014°44'0 0.0
2017-Sep-05 19:28N 35°51' E 014°44'0 0.0
2017-Sep-05 18:43N 35°51' E 014°44'0 0.1
2017-Sep-05 18:19N 35°51' E 014°44'0 0.1
2017-Sep-05 17:58N 35°51' E 014°44'0 0.0
2017-Sep-05 17:22N 35°51' E 014°44'0 0.1
2017-Sep-05 16:55N 35°51' E 014°44'0 0.0
2017-Sep-05 16:28N 35°51' E 014°44'0 0.0
2017-Sep-05 15:58N 35°51' E 014°44'0 0.0
2017-Sep-05 15:25N 35°51' E 014°44'0 0.0
2017-Sep-05 14:58N 35°51' E 014°44'0 0.0
2017-Sep-05 14:25N 35°51' E 014°44'0 0.0
2017-Sep-05 13:31N 35°51' E 014°44'1 1.3
2017-Sep-05 13:01N 35°52' E 014°43'0 4.2
2017-Sep-05 12:59N 35°52' E 014°43'4 7.5
2017-Sep-05 12:29N 35°55' E 014°40'4 7.9
2017-Sep-05 12:00N 35°57' E 014°36'4 7.8
2017-Sep-05 11:30N 35°60' E 014°33'4 8.0
2017-Sep-05 11:00N 36°02' E 014°29'4 7.8
2017-Sep-05 10:30N 36°03' E 014°24'4 7.6
2017-Sep-05 10:01N 36°05' E 014°20'4 7.9
2017-Sep-05 09:30N 36°07' E 014°16'4 7.9
2017-Sep-05 09:00N 36°09' E 014°11'4 8.1
2017-Sep-05 08:30N 36°11' E 014°07'4 8.2
2017-Sep-05 08:00N 36°13' E 014°02'4 8.3
2017-Sep-05 07:30N 36°15' E 013°58'4 8.3
2017-Sep-05 07:01N 36°16' E 013°53'4 8.4
2017-Sep-05 06:30N 36°18' E 013°49'4 8.4
2017-Sep-05 05:59N 36°21' E 013°44'4 8.3
2017-Sep-05 05:30N 36°22' E 013°40'24 7.7
2017-Sep-05 02:21N 36°33' E 013°12'5 7.5
2017-Sep-05 01:40N 36°36' E 013°07'7 7.6
2017-Sep-05 00:46N 36°39' E 012°59'2 7.5
2017-Sep-05 00:26N 36°40' E 012°56'4 7.4
2017-Sep-04 23:57N 36°41' E 012°52'4 7.4
2017-Sep-04 23:26N 36°43' E 012°48'3 7.4
2017-Sep-04 23:00N 36°45' E 012°45'5 7.6
2017-Sep-04 22:24N 36°47' E 012°40'  
Track history (hours):
 
Tides and Currents Weather Stations Pressure Air Temp Water Temp Dewpoint Dewpoint Depression Visibility Wind Speed Wind Dir Waves Ship Positions

Melissa

Last reported at 2017-Sep-13 06:14 UTC. Time now 2017-Sep-20 02:05 UTC.
Position N 33°49' E 015°28'.

Length 83 m; draft 4.3 m.

Type: Cargo ship. MMSI: 518624000.

Date/timePositionNaut miles runAvg speedWind from/ knotsBaromVisibWave heightAir tempDewpointWater temp
2017-Sep-13 06:14N 33°49' E 015°28'2 8.3
2017-Sep-13 05:58N 33°49' E 015°26'4 8.3
2017-Sep-13 05:30N 33°49' E 015°21'4 8.4
2017-Sep-13 05:00N 33°49' E 015°16'4 8.6
2017-Sep-13 04:29N 33°50' E 015°11'4 8.8
2017-Sep-13 04:00N 33°50' E 015°06'5 9.0
2017-Sep-13 03:30N 33°50' E 015°00'5 9.0
2017-Sep-13 02:57N 33°51' E 014°54'4 9.0
2017-Sep-13 02:30N 33°51' E 014°49'15 8.8
2017-Sep-13 00:47N 33°52' E 014°31'13 8.5
2017-Sep-12 23:12N 33°53' E 014°15'2 8.5
2017-Sep-12 23:00N 33°53' E 014°13'4 8.5
2017-Sep-12 22:30N 33°54' E 014°08'14 8.3
2017-Sep-12 20:48N 33°55' E 013°51'2 8.2
2017-Sep-12 20:30N 33°55' E 013°48'4 8.2
2017-Sep-12 20:00N 33°55' E 013°43'4 8.3
2017-Sep-12 19:30N 33°55' E 013°38'4 8.1
2017-Sep-12 19:00N 33°56' E 013°33'4 8.0
2017-Sep-12 18:30N 33°56' E 013°29'4 7.9
2017-Sep-12 18:00N 33°56' E 013°24'5 7.7
2017-Sep-12 17:23N 33°57' E 013°18'3 7.4
2017-Sep-12 17:00N 33°57' E 013°15'  
2017-Sep-07 21:19N 35°38' E 014°11'3 8.1
2017-Sep-07 20:59N 35°39' E 014°14'4 8.1
2017-Sep-07 20:30N 35°41' E 014°18'4 8.1
2017-Sep-07 20:00N 35°43' E 014°22'14 7.8
2017-Sep-07 18:12N 35°51' E 014°37'2 8.5
2017-Sep-07 18:00N 35°53' E 014°37'4 7.6
2017-Sep-07 17:30N 35°55' E 014°33'2 0.8
2017-Sep-07 14:25N 35°53' E 014°31'0 0.0
2017-Sep-06 18:34N 35°53' E 014°31'0 0.0
2017-Sep-06 18:28N 35°53' E 014°31'1 0.1
2017-Sep-06 02:50N 35°54' E 014°32'2 7.4
2017-Sep-06 02:30N 35°55' E 014°34'4 7.5
2017-Sep-06 02:00N 35°54' E 014°39'4 7.3
2017-Sep-06 01:30N 35°52' E 014°43'1 1.0
2017-Sep-06 00:13N 35°51' E 014°44'0 0.0
2017-Sep-05 23:58N 35°51' E 014°44'0 0.0
2017-Sep-05 23:13N 35°51' E 014°44'0 0.0
2017-Sep-05 22:43N 35°51' E 014°44'0 0.0
2017-Sep-05 22:22N 35°51' E 014°44'0 0.0
2017-Sep-05 21:55N 35°51' E 014°44'0 0.0
2017-Sep-05 21:25N 35°51' E 014°44'0 0.0
2017-Sep-05 19:55N 35°51' E 014°44'0 0.0
2017-Sep-05 19:28N 35°51' E 014°44'0 0.0
2017-Sep-05 18:43N 35°51' E 014°44'0 0.1
2017-Sep-05 18:19N 35°51' E 014°44'0 0.1
2017-Sep-05 17:58N 35°51' E 014°44'0 0.0
2017-Sep-05 17:22N 35°51' E 014°44'0 0.1
2017-Sep-05 16:55N 35°51' E 014°44'0 0.0
2017-Sep-05 16:28N 35°51' E 014°44'0 0.0
2017-Sep-05 15:58N 35°51' E 014°44'0 0.0
2017-Sep-05 15:25N 35°51' E 014°44'0 0.0
2017-Sep-05 14:58N 35°51' E 014°44'0 0.0
2017-Sep-05 14:25N 35°51' E 014°44'0 0.0
2017-Sep-05 13:31N 35°51' E 014°44'1 1.3
2017-Sep-05 13:01N 35°52' E 014°43'0 4.2
2017-Sep-05 12:59N 35°52' E 014°43'4 7.5
2017-Sep-05 12:29N 35°55' E 014°40'4 7.9
2017-Sep-05 12:00N 35°57' E 014°36'4 7.8
2017-Sep-05 11:30N 35°60' E 014°33'4 8.0
2017-Sep-05 11:00N 36°02' E 014°29'4 7.8
2017-Sep-05 10:30N 36°03' E 014°24'4 7.6
2017-Sep-05 10:01N 36°05' E 014°20'4 7.9
2017-Sep-05 09:30N 36°07' E 014°16'4 7.9
2017-Sep-05 09:00N 36°09' E 014°11'4 8.1
2017-Sep-05 08:30N 36°11' E 014°07'4 8.2
2017-Sep-05 08:00N 36°13' E 014°02'4 8.3
2017-Sep-05 07:30N 36°15' E 013°58'4 8.3
2017-Sep-05 07:01N 36°16' E 013°53'4 8.4
2017-Sep-05 06:30N 36°18' E 013°49'4 8.4
2017-Sep-05 05:59N 36°21' E 013°44'4 8.3
2017-Sep-05 05:30N 36°22' E 013°40'24 7.7
2017-Sep-05 02:21N 36°33' E 013°12'5 7.5
2017-Sep-05 01:40N 36°36' E 013°07'7 7.6
2017-Sep-05 00:46N 36°39' E 012°59'2 7.5
2017-Sep-05 00:26N 36°40' E 012°56'4 7.4
2017-Sep-04 23:57N 36°41' E 012°52'4 7.4
2017-Sep-04 23:26N 36°43' E 012°48'3 7.4
2017-Sep-04 23:00N 36°45' E 012°45'5 7.6
2017-Sep-04 22:24N 36°47' E 012°40'  

Dump ship's entire track history